ASL100 LOWS-LYBE
Flight info
| Callsign | ASL100 |
|---|---|
| Flight time | 1h 3m |
| Altitude | 320 |
| Route | NEMA4A NEMAL GOTAR BABIT T23 RIGMU RIGM2C |
| Aircraft | B738/M-SDE3FGHIRWY/LB1 |
Departure
| Time | 2026-04-29 17:13 |
|---|---|
| Airport | Salzburg Airport (LOWS) |
Arrival
| Time | 2026-04-29 18:16 |
|---|---|
| Airport | Belgrade Nikola Tesla Airport (LYBE) |
| Time | Latitude | Longitude | Altitude | Speed | Heading |
|---|---|---|---|---|---|
| 2026-04-29 16:41 | 47.79197 | 13.00091 | 1421 ft | 0 kts | 102° |
| 2026-04-29 17:08 | 47.79195 | 13.00098 | 1421 ft | 2 kts | 116° |
| 2026-04-29 17:09 | 47.79180 | 13.00102 | 1420 ft | 3 kts | 191° |
| 2026-04-29 17:09 | 47.79137 | 13.00097 | 1420 ft | 9 kts | 175° |
| 2026-04-29 17:09 | 47.79060 | 13.00104 | 1420 ft | 13 kts | 174° |
| 2026-04-29 17:09 | 47.78970 | 13.00158 | 1419 ft | 16 kts | 126° |
| 2026-04-29 17:10 | 47.78944 | 13.00340 | 1416 ft | 20 kts | 116° |
| 2026-04-29 17:10 | 47.78821 | 13.00451 | 1416 ft | 22 kts | 157° |
| 2026-04-29 17:10 | 47.78674 | 13.00542 | 1421 ft | 23 kts | 158° |
| 2026-04-29 17:10 | 47.78521 | 13.00635 | 1420 ft | 25 kts | 158° |
| 2026-04-29 17:11 | 47.78351 | 13.00735 | 1420 ft | 27 kts | 159° |
| 2026-04-29 17:11 | 47.78238 | 13.00818 | 1420 ft | 1 kts | 146° |
| 2026-04-29 17:11 | 47.78206 | 13.00858 | 1417 ft | 13 kts | 136° |
| 2026-04-29 17:11 | 47.78184 | 13.01012 | 1416 ft | 17 kts | 69° |
| 2026-04-29 17:12 | 47.78259 | 13.01083 | 1419 ft | 16 kts | 347° |
| 2026-04-29 17:12 | 47.78613 | 13.00864 | 1422 ft | 97 kts | 337° |
| 2026-04-29 17:12 | 47.79465 | 13.00295 | 1438 ft | 168 kts | 334° |
| 2026-04-29 17:12 | 47.80208 | 12.99750 | 1761 ft | 189 kts | 334° |
| 2026-04-29 17:13 | 47.81796 | 12.98433 | 3020 ft | 201 kts | 341° |
| 2026-04-29 17:13 | 47.83247 | 12.98345 | 3509 ft | 229 kts | 17° |
| 2026-04-29 17:13 | 47.84725 | 12.99769 | 2806 ft | 288 kts | 46° |
| 2026-04-29 17:13 | 47.86030 | 13.02052 | 2604 ft | 275 kts | 49° |
| 2026-04-29 17:14 | 47.87380 | 13.03942 | 2706 ft | 255 kts | 38° |
| 2026-04-29 17:14 | 47.88782 | 13.05443 | 2788 ft | 250 kts | 35° |
| 2026-04-29 17:14 | 47.90234 | 13.06928 | 3214 ft | 256 kts | 35° |
| 2026-04-29 17:14 | 47.91695 | 13.08455 | 4128 ft | 257 kts | 38° |
| 2026-04-29 17:15 | 47.92853 | 13.10473 | 4980 ft | 261 kts | 67° |
| 2026-04-29 17:15 | 47.93083 | 13.13137 | 5804 ft | 264 kts | 95° |
| 2026-04-29 17:15 | 47.92852 | 13.15896 | 6528 ft | 273 kts | 96° |
| 2026-04-29 17:15 | 47.92645 | 13.18749 | 7218 ft | 279 kts | 94° |
| 2026-04-29 17:16 | 47.92537 | 13.21658 | 7987 ft | 283 kts | 91° |
| 2026-04-29 17:16 | 47.92469 | 13.24616 | 8759 ft | 288 kts | 91° |
| 2026-04-29 17:16 | 47.92405 | 13.27627 | 9527 ft | 293 kts | 91° |
| 2026-04-29 17:16 | 47.92335 | 13.30692 | 10238 ft | 299 kts | 91° |
| 2026-04-29 17:17 | 47.92256 | 13.33809 | 10941 ft | 303 kts | 91° |
| 2026-04-29 17:17 | 47.92171 | 13.36960 | 11690 ft | 305 kts | 92° |
| 2026-04-29 17:17 | 47.92142 | 13.37987 | 11931 ft | 306 kts | 92° |
| 2026-04-29 17:17 | 47.92053 | 13.41001 | 12614 ft | 310 kts | 92° |
| 2026-04-29 17:18 | 47.91950 | 13.44235 | 13331 ft | 313 kts | 92° |
| 2026-04-29 17:18 | 47.91839 | 13.47498 | 14033 ft | 317 kts | 92° |
| 2026-04-29 17:18 | 47.91623 | 13.50795 | 14637 ft | 323 kts | 101° |
| 2026-04-29 17:18 | 47.90917 | 13.53995 | 15247 ft | 327 kts | 114° |
| 2026-04-29 17:19 | 47.89933 | 13.57031 | 15994 ft | 326 kts | 117° |
| 2026-04-29 17:19 | 47.88867 | 13.60055 | 16564 ft | 333 kts | 118° |
| 2026-04-29 17:19 | 47.87778 | 13.63137 | 17132 ft | 339 kts | 118° |
| 2026-04-29 17:19 | 47.86692 | 13.66262 | 17779 ft | 342 kts | 117° |
| 2026-04-29 17:20 | 47.85588 | 13.69497 | 17979 ft | 361 kts | 117° |
| 2026-04-29 17:20 | 47.84448 | 13.72894 | 18392 ft | 370 kts | 116° |
| 2026-04-29 17:20 | 47.83304 | 13.76342 | 18991 ft | 372 kts | 116° |
| 2026-04-29 17:20 | 47.82163 | 13.79808 | 19585 ft | 374 kts | 116° |
| 2026-04-29 17:21 | 47.81031 | 13.83259 | 20115 ft | 378 kts | 116° |
| 2026-04-29 17:21 | 47.79871 | 13.86799 | 20618 ft | 383 kts | 115° |
| 2026-04-29 17:21 | 47.78699 | 13.90376 | 21152 ft | 386 kts | 115° |
| 2026-04-29 17:21 | 47.77517 | 13.93979 | 21678 ft | 390 kts | 115° |
| 2026-04-29 17:22 | 47.76322 | 13.97615 | 22218 ft | 393 kts | 115° |
| 2026-04-29 17:22 | 47.75114 | 14.01284 | 22729 ft | 397 kts | 115° |
| 2026-04-29 17:22 | 47.73897 | 14.04981 | 23235 ft | 401 kts | 115° |
| 2026-04-29 17:22 | 47.72671 | 14.08709 | 23761 ft | 404 kts | 115° |
| 2026-04-29 17:23 | 47.71431 | 14.12481 | 24199 ft | 407 kts | 115° |
| 2026-04-29 17:23 | 47.70186 | 14.16262 | 24662 ft | 409 kts | 115° |
| 2026-04-29 17:23 | 47.68929 | 14.20070 | 25109 ft | 412 kts | 115° |
| 2026-04-29 17:23 | 47.67664 | 14.23909 | 25511 ft | 416 kts | 115° |
| 2026-04-29 17:24 | 47.66391 | 14.27770 | 25904 ft | 419 kts | 115° |
| 2026-04-29 17:24 | 47.65103 | 14.31671 | 26306 ft | 422 kts | 115° |
| 2026-04-29 17:24 | 47.63810 | 14.35576 | 26810 ft | 421 kts | 115° |
| 2026-04-29 17:24 | 47.62527 | 14.39449 | 27407 ft | 418 kts | 115° |
| 2026-04-29 17:25 | 47.61248 | 14.43310 | 27969 ft | 416 kts | 115° |
| 2026-04-29 17:25 | 47.59970 | 14.47163 | 28423 ft | 417 kts | 115° |
| 2026-04-29 17:25 | 47.58690 | 14.51015 | 28825 ft | 419 kts | 115° |
| 2026-04-29 17:25 | 47.57402 | 14.54881 | 29296 ft | 418 kts | 115° |
| 2026-04-29 17:26 | 47.56117 | 14.58735 | 29831 ft | 415 kts | 115° |
| 2026-04-29 17:26 | 47.54843 | 14.62550 | 30348 ft | 413 kts | 116° |
| 2026-04-29 17:26 | 47.53567 | 14.66372 | 30677 ft | 414 kts | 115° |
| 2026-04-29 17:26 | 47.52286 | 14.70200 | 30934 ft | 417 kts | 116° |
| 2026-04-29 17:27 | 47.50995 | 14.74051 | 31237 ft | 417 kts | 116° |
| 2026-04-29 17:27 | 47.49695 | 14.77925 | 31231 ft | 424 kts | 116° |
| 2026-04-29 17:27 | 47.47097 | 14.85659 | 31248 ft | 420 kts | 116° |
| 2026-04-29 17:28 | 47.44894 | 14.92207 | 31283 ft | 435 kts | 116° |
| 2026-04-29 17:28 | 47.43530 | 14.96251 | 31226 ft | 446 kts | 116° |
| 2026-04-29 17:28 | 47.42135 | 15.00379 | 31267 ft | 453 kts | 116° |
| 2026-04-29 17:29 | 47.39257 | 15.08881 | 31246 ft | 472 kts | 116° |
| 2026-04-29 17:29 | 47.36267 | 15.17687 | 31246 ft | 488 kts | 116° |
| 2026-04-29 17:30 | 47.33173 | 15.26759 | 31245 ft | 502 kts | 116° |
| 2026-04-29 17:30 | 47.30020 | 15.35985 | 31239 ft | 505 kts | 117° |
| 2026-04-29 17:31 | 47.26848 | 15.45225 | 31243 ft | 507 kts | 117° |
| 2026-04-29 17:31 | 47.23654 | 15.54475 | 31258 ft | 507 kts | 117° |
| 2026-04-29 17:32 | 47.20449 | 15.63709 | 31265 ft | 506 kts | 117° |
| 2026-04-29 17:32 | 47.17242 | 15.72921 | 31245 ft | 506 kts | 117° |
| 2026-04-29 17:33 | 47.14034 | 15.82109 | 31253 ft | 505 kts | 117° |
| 2026-04-29 17:33 | 47.10821 | 15.91283 | 31259 ft | 505 kts | 117° |
| 2026-04-29 17:34 | 47.07599 | 16.00444 | 31249 ft | 505 kts | 117° |
| 2026-04-29 17:34 | 47.04372 | 16.09588 | 31245 ft | 505 kts | 117° |
| 2026-04-29 17:35 | 46.99510 | 16.23294 | 31244 ft | 505 kts | 118° |
| 2026-04-29 17:36 | 46.96180 | 16.32361 | 31235 ft | 506 kts | 119° |
| 2026-04-29 17:36 | 46.92778 | 16.41360 | 31253 ft | 506 kts | 120° |
| 2026-04-29 17:37 | 46.89358 | 16.50363 | 31224 ft | 507 kts | 120° |
| 2026-04-29 17:37 | 46.85935 | 16.59377 | 31253 ft | 507 kts | 120° |
| 2026-04-29 17:38 | 46.82507 | 16.68393 | 31224 ft | 509 kts | 120° |
| 2026-04-29 17:38 | 46.79069 | 16.77419 | 31244 ft | 509 kts | 120° |
| 2026-04-29 17:39 | 46.75615 | 16.86452 | 31220 ft | 510 kts | 120° |
| 2026-04-29 17:39 | 46.72171 | 16.95429 | 31243 ft | 511 kts | 120° |
| 2026-04-29 17:40 | 46.68665 | 17.04527 | 31216 ft | 512 kts | 120° |
| 2026-04-29 17:40 | 46.65191 | 17.13513 | 31232 ft | 513 kts | 120° |
| 2026-04-29 17:41 | 46.61678 | 17.22558 | 31219 ft | 514 kts | 120° |
| 2026-04-29 17:41 | 46.58157 | 17.31600 | 31228 ft | 514 kts | 120° |
| 2026-04-29 17:42 | 46.54620 | 17.40642 | 31217 ft | 515 kts | 121° |
| 2026-04-29 17:42 | 46.51073 | 17.49685 | 31229 ft | 515 kts | 121° |
| 2026-04-29 17:43 | 46.47518 | 17.58712 | 31231 ft | 515 kts | 121° |
| 2026-04-29 17:43 | 46.43953 | 17.67741 | 31219 ft | 516 kts | 121° |
| 2026-04-29 17:44 | 46.40379 | 17.76760 | 31223 ft | 516 kts | 121° |
| 2026-04-29 17:44 | 46.36795 | 17.85772 | 31217 ft | 516 kts | 121° |
| 2026-04-29 17:45 | 46.33202 | 17.94772 | 31219 ft | 517 kts | 121° |
| 2026-04-29 17:45 | 46.29602 | 18.03761 | 31218 ft | 517 kts | 121° |
| 2026-04-29 17:46 | 46.25988 | 18.12755 | 31209 ft | 518 kts | 121° |
| 2026-04-29 17:46 | 46.22369 | 18.21745 | 31224 ft | 518 kts | 121° |
| 2026-04-29 17:47 | 46.18735 | 18.30740 | 31225 ft | 519 kts | 121° |
| 2026-04-29 17:47 | 46.15088 | 18.39739 | 31214 ft | 520 kts | 121° |
| 2026-04-29 17:48 | 46.11424 | 18.48743 | 31225 ft | 520 kts | 122° |
| 2026-04-29 17:48 | 46.07754 | 18.57734 | 31203 ft | 521 kts | 122° |
| 2026-04-29 17:49 | 46.04069 | 18.66718 | 31222 ft | 521 kts | 122° |
| 2026-04-29 17:49 | 46.00368 | 18.75681 | 31195 ft | 521 kts | 122° |
| 2026-04-29 17:50 | 45.96648 | 18.84615 | 31217 ft | 521 kts | 122° |
| 2026-04-29 17:50 | 45.92830 | 18.93465 | 31171 ft | 520 kts | 128° |
| 2026-04-29 17:50 | 45.90450 | 18.97232 | 31093 ft | 513 kts | 147° |
| 2026-04-29 17:51 | 45.87422 | 18.99910 | 31293 ft | 500 kts | 158° |
| 2026-04-29 17:51 | 45.81217 | 19.04283 | 31204 ft | 502 kts | 158° |
| 2026-04-29 17:52 | 45.75204 | 19.09496 | 31213 ft | 508 kts | 150° |
| 2026-04-29 17:52 | 45.69348 | 19.15166 | 31196 ft | 508 kts | 151° |
| 2026-04-29 17:53 | 45.63414 | 19.20666 | 31209 ft | 508 kts | 152° |
| 2026-04-29 17:53 | 45.57423 | 19.26009 | 31196 ft | 508 kts | 153° |
| 2026-04-29 17:54 | 45.51393 | 19.31244 | 31212 ft | 507 kts | 154° |
| 2026-04-29 17:54 | 45.45354 | 19.36492 | 31195 ft | 509 kts | 152° |
| 2026-04-29 17:55 | 45.39849 | 19.42859 | 30932 ft | 524 kts | 126° |
| 2026-04-29 17:55 | 45.38105 | 19.47420 | 30573 ft | 523 kts | 115° |
| 2026-04-29 17:55 | 45.36611 | 19.52123 | 30130 ft | 524 kts | 115° |
| 2026-04-29 17:55 | 45.34991 | 19.56774 | 29505 ft | 524 kts | 120° |
| 2026-04-29 17:56 | 45.33145 | 19.61217 | 28979 ft | 521 kts | 124° |
| 2026-04-29 17:56 | 45.31190 | 19.65537 | 28446 ft | 519 kts | 125° |
| 2026-04-29 17:56 | 45.29228 | 19.69826 | 27930 ft | 519 kts | 125° |
| 2026-04-29 17:56 | 45.27287 | 19.74193 | 27410 ft | 526 kts | 124° |
| 2026-04-29 17:57 | 45.25374 | 19.78640 | 26885 ft | 529 kts | 123° |
| 2026-04-29 17:57 | 45.23490 | 19.83122 | 26390 ft | 528 kts | 122° |
| 2026-04-29 17:57 | 45.21633 | 19.87594 | 25896 ft | 526 kts | 122° |
| 2026-04-29 17:57 | 45.20407 | 19.90556 | 25525 ft | 526 kts | 122° |
| 2026-04-29 17:58 | 45.17934 | 19.96528 | 24605 ft | 521 kts | 122° |
| 2026-04-29 17:58 | 45.16109 | 20.00925 | 23984 ft | 515 kts | 122° |
| 2026-04-29 17:58 | 45.14301 | 20.05266 | 23275 ft | 509 kts | 123° |
| 2026-04-29 17:58 | 45.12509 | 20.09558 | 22546 ft | 503 kts | 123° |
| 2026-04-29 17:59 | 45.10739 | 20.13793 | 21826 ft | 497 kts | 123° |
| 2026-04-29 17:59 | 45.08988 | 20.17981 | 21135 ft | 491 kts | 123° |
| 2026-04-29 17:59 | 45.07279 | 20.22062 | 20469 ft | 486 kts | 123° |
| 2026-04-29 17:59 | 45.05599 | 20.26067 | 19813 ft | 481 kts | 123° |
| 2026-04-29 18:00 | 45.04159 | 20.29491 | 19270 ft | 477 kts | 124° |
| 2026-04-29 18:00 | 45.02470 | 20.33497 | 18638 ft | 472 kts | 124° |
| 2026-04-29 18:00 | 45.00794 | 20.37455 | 17925 ft | 467 kts | 124° |
| 2026-04-29 18:00 | 44.99123 | 20.41360 | 17207 ft | 462 kts | 124° |
| 2026-04-29 18:01 | 44.97452 | 20.45204 | 16503 ft | 457 kts | 124° |
| 2026-04-29 18:01 | 44.95783 | 20.48994 | 15823 ft | 452 kts | 124° |
| 2026-04-29 18:01 | 44.94140 | 20.52742 | 15155 ft | 447 kts | 124° |
| 2026-04-29 18:01 | 44.92539 | 20.56468 | 14505 ft | 442 kts | 123° |
| 2026-04-29 18:02 | 44.90967 | 20.60118 | 14301 ft | 425 kts | 126° |
| 2026-04-29 18:02 | 44.89116 | 20.63209 | 14071 ft | 403 kts | 147° |
| 2026-04-29 18:02 | 44.86686 | 20.64797 | 14021 ft | 372 kts | 173° |
| 2026-04-29 18:02 | 44.84210 | 20.65341 | 14035 ft | 352 kts | 178° |
| 2026-04-29 18:03 | 44.81822 | 20.65801 | 13913 ft | 341 kts | 176° |
| 2026-04-29 18:03 | 44.79536 | 20.66489 | 13792 ft | 334 kts | 167° |
| 2026-04-29 18:03 | 44.77515 | 20.68101 | 13621 ft | 337 kts | 142° |
| 2026-04-29 18:03 | 44.75971 | 20.70504 | 13645 ft | 328 kts | 129° |
| 2026-04-29 18:04 | 44.74770 | 20.73186 | 13569 ft | 319 kts | 123° |
| 2026-04-29 18:04 | 44.73678 | 20.75841 | 13495 ft | 309 kts | 123° |
| 2026-04-29 18:04 | 44.72604 | 20.78400 | 13422 ft | 298 kts | 124° |
| 2026-04-29 18:04 | 44.71541 | 20.80818 | 13373 ft | 283 kts | 125° |
| 2026-04-29 18:05 | 44.70513 | 20.83107 | 13118 ft | 274 kts | 125° |
| 2026-04-29 18:05 | 44.69497 | 20.85374 | 12674 ft | 274 kts | 124° |
| 2026-04-29 18:05 | 44.68312 | 20.87416 | 12212 ft | 267 kts | 149° |
| 2026-04-29 18:05 | 44.66634 | 20.88291 | 11892 ft | 251 kts | 177° |
| 2026-04-29 18:06 | 44.64931 | 20.88259 | 11466 ft | 243 kts | 198° |
| 2026-04-29 18:06 | 44.63392 | 20.87363 | 11040 ft | 237 kts | 213° |
| 2026-04-29 18:06 | 44.62023 | 20.86199 | 10886 ft | 221 kts | 216° |
| 2026-04-29 18:06 | 44.60731 | 20.85084 | 10533 ft | 218 kts | 216° |
| 2026-04-29 18:07 | 44.59607 | 20.83693 | 10006 ft | 217 kts | 241° |
| 2026-04-29 18:07 | 44.59314 | 20.81701 | 9472 ft | 209 kts | 284° |
| 2026-04-29 18:07 | 44.60013 | 20.79979 | 9163 ft | 205 kts | 313° |
| 2026-04-29 18:07 | 44.60976 | 20.78454 | 9145 ft | 212 kts | 308° |
| 2026-04-29 18:08 | 44.61767 | 20.76742 | 9137 ft | 206 kts | 302° |
| 2026-04-29 18:08 | 44.62489 | 20.75005 | 9105 ft | 205 kts | 301° |
| 2026-04-29 18:08 | 44.63221 | 20.73276 | 8949 ft | 211 kts | 302° |
| 2026-04-29 18:08 | 44.64003 | 20.71456 | 8365 ft | 220 kts | 302° |
| 2026-04-29 18:09 | 44.64797 | 20.69610 | 7839 ft | 222 kts | 303° |
| 2026-04-29 18:09 | 44.65518 | 20.67938 | 7303 ft | 225 kts | 303° |
| 2026-04-29 18:09 | 44.66371 | 20.65966 | 6485 ft | 240 kts | 303° |
| 2026-04-29 18:09 | 44.67235 | 20.63966 | 5833 ft | 239 kts | 304° |
| 2026-04-29 18:10 | 44.68088 | 20.62001 | 5270 ft | 231 kts | 304° |
| 2026-04-29 18:10 | 44.68886 | 20.60165 | 5080 ft | 209 kts | 304° |
| 2026-04-29 18:10 | 44.69607 | 20.58507 | 4995 ft | 188 kts | 305° |
| 2026-04-29 18:10 | 44.70243 | 20.57036 | 4977 ft | 165 kts | 305° |
| 2026-04-29 18:11 | 44.70820 | 20.55709 | 4735 ft | 154 kts | 306° |
| 2026-04-29 18:11 | 44.71373 | 20.54444 | 4430 ft | 153 kts | 306° |
| 2026-04-29 18:11 | 44.71944 | 20.53158 | 4000 ft | 155 kts | 306° |
| 2026-04-29 18:11 | 44.72504 | 20.51901 | 3688 ft | 149 kts | 306° |
| 2026-04-29 18:12 | 44.73060 | 20.50646 | 3251 ft | 150 kts | 306° |
| 2026-04-29 18:12 | 44.73608 | 20.49407 | 3148 ft | 149 kts | 306° |
| 2026-04-29 18:12 | 44.74158 | 20.48167 | 3109 ft | 150 kts | 306° |
| 2026-04-29 18:12 | 44.74524 | 20.47352 | 3091 ft | 147 kts | 306° |
| 2026-04-29 18:13 | 44.75074 | 20.46126 | 3099 ft | 150 kts | 305° |
| 2026-04-29 18:13 | 44.75623 | 20.44883 | 3103 ft | 149 kts | 306° |
| 2026-04-29 18:13 | 44.76190 | 20.43602 | 2577 ft | 166 kts | 306° |
| 2026-04-29 18:13 | 44.76802 | 20.42240 | 2136 ft | 161 kts | 305° |
| 2026-04-29 18:14 | 44.77404 | 20.40911 | 1685 ft | 156 kts | 304° |
| 2026-04-29 18:14 | 44.77954 | 20.39693 | 1512 ft | 142 kts | 304° |
| 2026-04-29 18:14 | 44.78413 | 20.38490 | 1472 ft | 140 kts | 299° |
| 2026-04-29 18:14 | 44.78868 | 20.37253 | 1382 ft | 142 kts | 298° |
| 2026-04-29 18:15 | 44.79077 | 20.36693 | 1316 ft | 142 kts | 299° |
| 2026-04-29 18:15 | 44.79605 | 20.35471 | 1086 ft | 141 kts | 303° |
| 2026-04-29 18:15 | 44.80145 | 20.34322 | 796 ft | 143 kts | 300° |
| 2026-04-29 18:15 | 44.80679 | 20.33113 | 464 ft | 145 kts | 298° |
| 2026-04-29 18:16 | 44.81177 | 20.31944 | 306 ft | 128 kts | 301° |
| 2026-04-29 18:16 | 44.81599 | 20.31009 | 304 ft | 97 kts | 302° |
| 2026-04-29 18:16 | 44.81889 | 20.30360 | 306 ft | 62 kts | 302° |
| 2026-04-29 18:16 | 44.82008 | 20.30096 | 305 ft | 15 kts | 301° |
| 2026-04-29 18:17 | 44.82059 | 20.29975 | 307 ft | 15 kts | 301° |
| 2026-04-29 18:17 | 44.82129 | 20.29817 | 307 ft | 23 kts | 303° |
| 2026-04-29 18:17 | 44.82221 | 20.29614 | 308 ft | 21 kts | 302° |
| 2026-04-29 18:17 | 44.82314 | 20.29403 | 307 ft | 30 kts | 302° |
| 2026-04-29 18:18 | 44.82370 | 20.29236 | 307 ft | 5 kts | 255° |
| 2026-04-29 18:18 | 44.82317 | 20.29170 | 307 ft | 16 kts | 211° |
| 2026-04-29 18:18 | 44.82259 | 20.29086 | 306 ft | 11 kts | 246° |
| 2026-04-29 18:18 | 44.82214 | 20.29030 | 306 ft | 7 kts | 211° |
| 2026-04-29 18:19 | 44.82210 | 20.29026 | 307 ft | 0 kts | 212° |
| 2026-04-29 18:19 | 44.82208 | 20.29024 | 307 ft | 0 kts | 212° |